createdAt,value
2022-08-17T00:01:20.395Z,23.42
2022-08-17T00:04:19.295Z,22.25
2022-08-17T00:07:13.155Z,24.98
2022-08-17T00:10:10.451Z,20.58
2022-08-17T00:13:37.960Z,22.23
2022-08-17T00:16:55.521Z,25.05
2022-08-17T00:19:48.868Z,20.48
2022-08-17T00:22:38.973Z,19.88
2022-08-17T00:25:32.962Z,20.20
2022-08-17T00:28:24.982Z,27.55
2022-08-17T00:31:17.413Z,23.88
2022-08-17T00:34:16.148Z,23.48
2022-08-17T00:37:16.228Z,22.63
2022-08-17T00:40:24.924Z,27.58
2022-08-17T00:43:46.880Z,22.17
2022-08-17T00:46:47.169Z,22.30
2022-08-17T00:49:48.699Z,21.55
2022-08-17T00:52:51.928Z,21.57
2022-08-17T00:55:44.929Z,21.13
2022-08-17T00:58:36.954Z,22.00
2022-08-17T01:01:36.653Z,21.60
2022-08-17T01:05:12.232Z,20.77
2022-08-17T01:08:26.594Z,24.55
2022-08-17T01:11:17.498Z,22.20
2022-08-17T01:14:10.472Z,21.70
2022-08-17T01:17:09.853Z,26.40
2022-08-17T01:20:13.876Z,22.42
2022-08-17T01:23:20.901Z,19.83
2022-08-17T01:26:09.926Z,24.38
2022-08-17T01:29:05.578Z,22.95
2022-08-17T01:31:59.742Z,23.40
2022-08-17T01:34:52.493Z,22.83
2022-08-17T01:37:42.857Z,24.42
2022-08-17T01:41:38.902Z,23.42
2022-08-17T01:44:21.428Z,22.90
2022-08-17T01:50:01.000Z,24.95
2022-08-17T01:52:59.390Z,22.83
2022-08-17T01:55:53.951Z,22.80
2022-08-17T01:58:46.919Z,23.52
2022-08-17T02:01:46.305Z,18.85
2022-08-17T02:04:37.725Z,19.98
2022-08-17T02:07:31.837Z,20.15
2022-08-17T02:10:46.725Z,19.90
2022-08-17T02:13:46.480Z,20.40
2022-08-17T02:16:43.474Z,17.75
2022-08-17T02:19:32.752Z,21.13
2022-08-17T02:22:36.265Z,17.55
2022-08-17T02:25:25.150Z,15.82
2022-08-17T02:28:14.842Z,14.40
2022-08-17T02:31:13.813Z,17.38
2022-08-17T02:34:17.574Z,22.45
2022-08-17T02:37:15.250Z,26.70
2022-08-17T02:40:10.091Z,19.67
2022-08-17T02:43:14.267Z,16.20
2022-08-17T02:46:06.274Z,23.23
2022-08-17T02:49:05.397Z,19.07
2022-08-17T02:51:55.750Z,19.33
2022-08-17T02:54:46.235Z,17.47
2022-08-17T02:57:48.894Z,23.77
2022-08-17T03:00:49.639Z,17.13
2022-08-17T03:03:49.430Z,18.40
2022-08-17T03:06:43.733Z,22.33
2022-08-17T03:09:33.916Z,16.33
2022-08-17T03:12:22.171Z,17.70
2022-08-17T03:15:17.059Z,21.00
2022-08-17T03:18:07.757Z,18.70
2022-08-17T03:21:23.591Z,20.57
2022-08-17T03:24:18.041Z,17.70
2022-08-17T03:27:06.505Z,18.35
2022-08-17T03:29:59.473Z,19.83
2022-08-17T03:32:57.532Z,22.30
2022-08-17T03:35:49.704Z,20.30
2022-08-17T03:38:45.761Z,22.00
2022-08-17T03:41:44.780Z,24.10
2022-08-17T03:44:41.850Z,24.10
2022-08-17T03:47:52.876Z,24.67
2022-08-17T03:51:06.166Z,28.20
2022-08-17T03:54:17.085Z,26.07
2022-08-17T03:57:19.486Z,21.73
2022-08-17T04:00:19.018Z,29.67
2022-08-17T04:03:20.657Z,25.40
2022-08-17T04:06:28.109Z,26.95
2022-08-17T04:09:27.940Z,29.67
2022-08-17T04:16:01.737Z,29.17
2022-08-17T04:18:48.965Z,33.27
2022-08-17T04:21:36.392Z,22.50
2022-08-17T04:24:25.006Z,29.03
2022-08-17T04:27:12.255Z,25.27
2022-08-17T04:33:21.062Z,17.83
2022-08-17T04:36:08.754Z,17.03
2022-08-17T04:38:58.238Z,14.07
2022-08-17T04:42:04.679Z,18.43
2022-08-17T04:44:52.150Z,23.57
2022-08-17T04:47:41.349Z,21.83
2022-08-17T04:50:28.866Z,20.27
2022-08-17T04:53:18.220Z,21.27
2022-08-17T04:56:06.137Z,28.83
2022-08-17T04:58:56.931Z,33.50
2022-08-17T05:01:46.815Z,37.77
2022-08-17T05:04:43.537Z,35.63
2022-08-17T05:07:33.856Z,33.83
2022-08-17T05:10:24.788Z,32.93
2022-08-17T05:13:23.498Z,33.33
2022-08-17T05:16:12.441Z,35.70
2022-08-17T05:19:11.204Z,27.53
2022-08-17T05:22:31.364Z,29.20
2022-08-17T05:25:25.518Z,26.57
2022-08-17T05:28:13.828Z,27.10
2022-08-17T05:31:03.661Z,25.23
2022-08-17T05:33:51.254Z,26.50
2022-08-17T05:36:43.933Z,21.37
2022-08-17T05:39:32.366Z,23.77
2022-08-17T05:42:20.011Z,23.77
2022-08-17T05:45:08.227Z,25.97
2022-08-17T05:47:55.382Z,21.53
2022-08-17T05:50:51.235Z,23.80
2022-08-17T05:53:48.730Z,22.53
2022-08-17T05:57:00.723Z,24.43
2022-08-17T06:00:12.465Z,21.83
2022-08-17T06:03:27.125Z,24.23
2022-08-17T06:06:36.362Z,25.23
2022-08-17T06:09:39.014Z,21.20
2022-08-17T06:12:38.562Z,22.17
2022-08-17T06:15:55.968Z,19.43
2022-08-17T06:18:55.500Z,18.63
2022-08-17T06:21:46.775Z,21.63
2022-08-17T06:24:53.159Z,18.53
2022-08-17T06:27:53.802Z,22.43
2022-08-17T06:33:36.939Z,24.07
2022-08-17T06:36:29.250Z,20.67
2022-08-17T06:39:50.712Z,19.63
2022-08-17T06:42:55.042Z,19.77
2022-08-17T06:46:22.004Z,16.03
2022-08-17T06:49:14.130Z,19.30
2022-08-17T06:52:12.978Z,13.67
2022-08-17T06:55:37.902Z,14.00
2022-08-17T06:58:45.756Z,13.13
2022-08-17T07:01:56.662Z,10.43
2022-08-17T07:05:11.487Z,10.07
2022-08-17T07:08:39.316Z,12.50
2022-08-17T07:11:53.017Z,10.83
2022-08-17T07:15:12.873Z,9.57
2022-08-17T07:18:03.012Z,12.47
2022-08-17T07:21:25.851Z,9.87
2022-08-17T07:24:35.753Z,10.20
2022-08-17T07:27:39.892Z,15.43
2022-08-17T07:30:52.372Z,10.50
2022-08-17T07:36:46.910Z,10.33
2022-08-17T07:40:15.832Z,10.47
2022-08-17T07:43:42.530Z,9.83
2022-08-17T07:46:59.243Z,10.13
2022-08-17T07:50:00.584Z,9.17
2022-08-17T07:52:54.920Z,8.27
2022-08-17T07:55:55.679Z,7.33
2022-08-17T07:59:33.518Z,7.67
2022-08-17T08:02:34.862Z,7.80
2022-08-17T08:05:50.625Z,9.80
2022-08-17T08:08:45.511Z,8.70
2022-08-17T08:11:50.208Z,8.98
2022-08-17T08:15:11.106Z,8.27
2022-08-17T08:18:05.254Z,6.73
2022-08-17T08:21:15.915Z,9.13
2022-08-17T08:24:54.854Z,8.37
2022-08-17T08:28:18.669Z,8.63
2022-08-17T08:31:42.679Z,12.60
2022-08-17T08:35:25.439Z,7.77
2022-08-17T08:39:07.713Z,6.40
2022-08-17T08:42:43.681Z,7.23
2022-08-17T08:46:23.895Z,10.70
2022-08-17T08:50:01.880Z,6.80
2022-08-17T08:53:03.969Z,8.17
2022-08-17T08:56:20.210Z,7.63
2022-08-17T09:00:19.861Z,9.80
2022-08-17T09:04:18.306Z,8.80
2022-08-17T09:08:11.681Z,7.75
2022-08-17T09:11:05.399Z,9.23
2022-08-17T09:14:45.172Z,9.70
2022-08-17T09:17:59.456Z,11.33
2022-08-17T09:21:27.232Z,11.50
2022-08-17T09:24:54.632Z,10.37
2022-08-17T09:28:43.074Z,14.63
2022-08-17T09:31:59.603Z,13.27
2022-08-17T09:35:16.681Z,11.63
2022-08-17T09:38:45.723Z,12.80
2022-08-17T09:42:09.341Z,16.25
2022-08-17T09:45:44.232Z,17.30
2022-08-17T09:49:07.700Z,17.90
2022-08-17T09:52:21.138Z,19.05
2022-08-17T09:55:17.202Z,21.50
2022-08-17T09:58:20.275Z,21.03
2022-08-17T10:01:37.190Z,16.30
2022-08-17T10:05:06.271Z,14.90
2022-08-17T10:08:27.992Z,15.40
2022-08-17T10:11:56.061Z,16.97
2022-08-17T10:14:53.651Z,18.80
2022-08-17T10:18:01.419Z,16.93
2022-08-17T10:21:29.264Z,19.90
2022-08-17T10:25:21.129Z,19.20
2022-08-17T10:27:58.032Z,21.23
2022-08-17T10:31:10.507Z,15.73
2022-08-17T10:35:03.241Z,16.23
2022-08-17T10:38:53.791Z,14.57
2022-08-17T10:41:47.630Z,15.63
2022-08-17T10:45:08.583Z,18.60
2022-08-17T10:48:11.371Z,18.90
2022-08-17T10:51:42.927Z,19.47
2022-08-17T10:55:17.173Z,18.80
2022-08-17T10:59:07.588Z,18.10
2022-08-17T11:02:29.479Z,18.03
2022-08-17T11:05:32.406Z,18.47
2022-08-17T11:09:06.533Z,19.13
2022-08-17T11:12:14.177Z,18.87
2022-08-17T11:15:15.666Z,22.00
2022-08-17T11:18:15.674Z,19.80
2022-08-17T11:21:37.643Z,20.37
2022-08-17T11:24:35.667Z,20.47
2022-08-17T11:27:35.621Z,19.60
2022-08-17T11:30:55.315Z,20.10
2022-08-17T11:34:10.236Z,20.53
2022-08-17T11:37:10.303Z,19.63
2022-08-17T11:40:29.942Z,21.57
2022-08-17T11:44:12.352Z,22.97
2022-08-17T11:48:26.140Z,19.77
2022-08-17T11:51:33.377Z,23.53
2022-08-17T11:55:34.035Z,19.83
2022-08-17T11:58:33.259Z,19.67
2022-08-17T12:01:36.777Z,19.67
2022-08-17T12:05:17.194Z,19.83
2022-08-17T12:08:13.774Z,20.60
2022-08-17T12:11:56.248Z,18.37
2022-08-17T12:15:09.736Z,16.63
2022-08-17T12:18:05.294Z,16.77
2022-08-17T12:21:43.449Z,18.43
2022-08-17T12:25:07.047Z,17.47
2022-08-17T12:28:06.895Z,18.77
2022-08-17T12:31:00.412Z,15.50
2022-08-17T13:17:07.378Z,22.73
2022-08-17T13:20:23.181Z,22.60
2022-08-17T13:23:25.451Z,18.67
2022-08-17T13:26:24.155Z,16.70
2022-08-17T13:29:41.756Z,16.97
2022-08-17T13:32:49.699Z,18.73
2022-08-17T13:35:49.923Z,19.27
2022-08-17T13:38:51.168Z,17.20
2022-08-17T13:41:55.079Z,15.70
2022-08-17T13:44:48.804Z,16.13
2022-08-17T13:47:41.433Z,18.27
2022-08-17T13:50:53.864Z,17.87
2022-08-17T13:53:44.570Z,17.50
2022-08-17T13:57:17.323Z,14.20
2022-08-17T14:00:42.819Z,15.03
2022-08-17T14:04:01.292Z,15.70
2022-08-17T14:07:47.591Z,13.40
2022-08-17T14:11:17.056Z,13.03
2022-08-17T14:14:16.608Z,14.60
2022-08-17T14:17:45.381Z,14.37
2022-08-17T14:21:03.756Z,14.90
2022-08-17T14:24:12.455Z,12.43
2022-08-17T14:33:35.865Z,11.48
2022-08-17T14:37:10.771Z,11.60
2022-08-17T14:40:39.851Z,12.27
2022-08-17T14:43:37.721Z,12.63
2022-08-17T14:47:04.643Z,12.73
2022-08-17T14:50:08.654Z,11.53
2022-08-17T14:53:04.908Z,13.60
2022-08-17T14:55:55.740Z,11.17
2022-08-17T14:59:03.742Z,11.20
2022-08-17T15:02:02.881Z,11.10
2022-08-17T15:05:08.965Z,10.80
2022-08-17T15:08:08.920Z,11.98
2022-08-17T15:11:14.190Z,12.60
2022-08-17T15:14:08.423Z,13.80
2022-08-17T16:03:13.485Z,14.13
2022-08-17T16:05:34.090Z,14.35
2022-08-17T16:12:45.804Z,16.30
2022-08-17T17:28:00.318Z,12.73
2022-08-17T17:31:10.532Z,12.35
2022-08-17T17:34:03.816Z,9.32
2022-08-17T17:36:56.395Z,9.73
2022-08-17T17:39:52.779Z,10.65
2022-08-17T17:42:41.865Z,10.38
2022-08-17T17:45:42.543Z,9.38
2022-08-17T17:48:30.606Z,13.23
2022-08-17T17:52:08.500Z,10.07
2022-08-17T17:55:10.027Z,10.43
2022-08-17T17:58:03.523Z,11.23
2022-08-17T18:01:09.285Z,14.98
2022-08-17T18:04:17.641Z,10.40
2022-08-17T18:07:31.680Z,13.10
2022-08-17T18:10:32.891Z,11.02
2022-08-17T18:13:27.282Z,8.80
2022-08-17T18:16:14.913Z,7.50
2022-08-17T18:19:02.147Z,8.93
2022-08-17T18:21:54.617Z,9.45
2022-08-17T18:24:55.866Z,11.30
2022-08-17T18:27:51.344Z,8.88
2022-08-17T18:33:26.853Z,8.40
2022-08-17T18:36:30.515Z,10.00
2022-08-17T18:39:27.707Z,8.68
2022-08-17T18:42:28.982Z,9.73
2022-08-17T18:45:33.799Z,10.30
2022-08-17T18:48:26.091Z,10.50
2022-08-17T18:51:27.438Z,9.52
2022-08-17T18:54:30.014Z,12.32
2022-08-17T18:57:35.997Z,10.10
2022-08-17T19:00:23.465Z,11.52
2022-08-17T19:03:16.699Z,9.63
2022-08-17T19:06:34.059Z,9.82
2022-08-17T19:09:32.796Z,11.60
2022-08-17T19:12:46.006Z,9.95
2022-08-17T19:15:35.457Z,8.90
2022-08-17T19:18:35.830Z,10.98
2022-08-17T19:21:37.655Z,10.35
2022-08-17T19:24:31.188Z,9.93
2022-08-17T19:27:41.820Z,11.52
2022-08-17T19:30:31.445Z,11.23
2022-08-17T19:33:19.485Z,7.57
2022-08-17T19:36:32.816Z,11.05
2022-08-17T19:39:40.957Z,8.88
2022-08-17T19:43:02.037Z,12.03
2022-08-17T19:46:15.085Z,11.13
2022-08-17T19:49:33.766Z,10.37
2022-08-17T19:52:34.538Z,11.30
2022-08-17T19:55:36.838Z,14.20
2022-08-17T19:58:49.874Z,8.77
2022-08-17T20:01:50.104Z,11.67
2022-08-17T20:04:45.142Z,8.95
2022-08-17T20:07:44.744Z,11.38
2022-08-17T20:10:48.137Z,10.47
2022-08-17T20:13:51.285Z,11.63
2022-08-17T20:16:39.164Z,9.50
2022-08-17T20:19:41.150Z,9.13
2022-08-17T20:22:55.138Z,11.60
2022-08-17T20:25:54.773Z,12.67
2022-08-17T20:29:36.908Z,8.67
2022-08-17T20:32:30.911Z,12.53
2022-08-17T20:35:26.330Z,11.03
2022-08-17T20:38:48.865Z,10.93
2022-08-17T20:42:04.602Z,11.70
2022-08-17T20:44:58.234Z,8.30
2022-08-17T20:48:15.121Z,10.77
2022-08-17T20:51:00.835Z,10.68
2022-08-17T20:53:48.266Z,10.93
2022-08-17T20:56:47.903Z,7.33
2022-08-17T20:59:35.365Z,9.73
2022-08-17T21:02:25.415Z,8.93
2022-08-17T21:05:34.332Z,9.70
2022-08-17T21:08:32.878Z,11.97
2022-08-17T21:11:56.793Z,9.23
2022-08-17T21:14:52.442Z,6.77
2022-08-17T21:18:06.593Z,8.83
2022-08-17T21:20:59.953Z,6.43
2022-08-17T21:24:05.964Z,7.67
2022-08-17T21:27:05.283Z,7.93
2022-08-17T21:29:58.924Z,9.30
2022-08-17T21:33:28.045Z,10.40
2022-08-17T21:36:23.807Z,8.30
2022-08-17T21:39:19.354Z,8.23
2022-08-17T21:42:12.593Z,9.40
2022-08-17T21:45:12.079Z,8.97
2022-08-17T21:48:07.327Z,8.73
2022-08-17T21:53:56.099Z,10.57
2022-08-17T21:56:47.590Z,9.10
2022-08-17T21:59:38.514Z,9.37
2022-08-17T22:02:34.854Z,6.73
2022-08-17T22:05:36.309Z,8.70
2022-08-17T22:08:25.194Z,9.63
2022-08-17T22:11:13.940Z,8.00
2022-08-17T22:14:05.927Z,10.33
2022-08-17T22:17:21.256Z,7.90
2022-08-17T22:20:14.910Z,9.38
2022-08-17T22:23:29.918Z,8.13
2022-08-17T22:26:19.104Z,7.87
2022-08-17T22:29:06.728Z,8.67
2022-08-17T22:31:56.960Z,9.57
2022-08-17T22:34:44.395Z,12.53
2022-08-17T22:37:31.846Z,8.57
2022-08-17T22:40:32.269Z,8.67
2022-08-17T22:43:26.035Z,8.33
2022-08-17T22:46:15.221Z,9.87
2022-08-17T22:49:02.934Z,6.90
2022-08-17T22:52:02.781Z,7.50
2022-08-17T22:55:18.284Z,5.77
2022-08-17T22:58:34.364Z,6.82
2022-08-17T23:01:32.509Z,5.67
2022-08-17T23:04:39.197Z,5.77
2022-08-17T23:07:26.343Z,4.63
2022-08-17T23:10:14.801Z,6.03
2022-08-17T23:13:02.421Z,9.87
2022-08-17T23:15:51.285Z,7.37
2022-08-17T23:18:38.438Z,6.50
2022-08-17T23:21:31.733Z,8.07
2022-08-17T23:24:27.294Z,7.70
2022-08-17T23:27:14.736Z,6.00
2022-08-17T23:30:02.200Z,8.20
2022-08-17T23:32:53.766Z,5.33
2022-08-17T23:35:41.790Z,7.23
2022-08-17T23:38:29.900Z,8.87
2022-08-17T23:41:19.383Z,8.47
2022-08-17T23:44:07.567Z,9.50
2022-08-17T23:46:55.052Z,9.17
2022-08-17T23:49:42.677Z,9.53
2022-08-17T23:52:36.871Z,10.60
2022-08-17T23:55:24.020Z,8.93
2022-08-17T23:58:11.772Z,8.77
